createdAt,value
2018-06-08T00:01:30.281Z,28.00
2018-06-08T00:03:57.687Z,28.00
2018-06-08T00:06:25.067Z,28.00
2018-06-08T00:08:52.445Z,28.00
2018-06-08T00:11:19.851Z,27.90
2018-06-08T00:13:47.251Z,27.90
2018-06-08T00:16:14.660Z,27.80
2018-06-08T00:18:42.060Z,27.80
2018-06-08T00:21:09.447Z,27.80
2018-06-08T00:23:36.840Z,27.80
2018-06-08T00:26:04.316Z,27.70
2018-06-08T00:28:31.716Z,27.70
2018-06-08T00:33:26.248Z,27.70
2018-06-08T00:35:53.649Z,27.60
2018-06-08T00:38:21.048Z,27.60
2018-06-08T00:41:00.769Z,27.60
2018-06-08T00:43:28.183Z,27.60
2018-06-08T00:45:55.579Z,27.80
2018-06-08T00:48:24.045Z,27.80
2018-06-08T00:50:51.461Z,27.90
2018-06-08T00:53:18.880Z,28.00
2018-06-08T00:55:46.293Z,28.00
2018-06-08T00:58:13.715Z,28.10
2018-06-08T01:00:41.115Z,28.10
2018-06-08T01:03:08.545Z,28.20
2018-06-08T01:05:36.136Z,28.20
2018-06-08T01:08:03.564Z,28.20
2018-06-08T01:10:30.978Z,28.30
2018-06-08T01:12:58.381Z,28.20
2018-06-08T01:15:25.798Z,28.10
2018-06-08T01:17:53.201Z,28.00
2018-06-08T01:20:20.612Z,28.00
2018-06-08T01:22:48.034Z,27.90
2018-06-08T01:25:15.436Z,27.90
2018-06-08T01:27:42.840Z,27.80
2018-06-08T01:30:10.249Z,27.70
2018-06-08T01:32:37.672Z,27.60
2018-06-08T01:35:05.160Z,27.60
2018-06-08T01:37:32.555Z,27.60
2018-06-08T01:39:59.973Z,27.50
2018-06-08T01:44:54.565Z,27.50
2018-06-08T01:47:21.983Z,27.40
2018-06-08T01:49:58.316Z,27.50
2018-06-08T01:52:25.760Z,27.50
2018-06-08T01:54:53.196Z,27.40
2018-06-08T01:57:20.602Z,27.40
2018-06-08T01:59:48.019Z,27.50
2018-06-08T02:02:15.429Z,27.60
2018-06-08T02:04:42.828Z,27.70
2018-06-08T02:07:10.246Z,27.80
2018-06-08T02:09:37.729Z,27.90
2018-06-08T02:12:05.148Z,28.00
2018-06-08T02:14:32.554Z,28.00
2018-06-08T02:16:59.968Z,28.10
2018-06-08T02:19:27.402Z,28.10
2018-06-08T02:21:54.833Z,28.20
2018-06-08T02:24:22.245Z,28.20
2018-06-08T02:26:49.663Z,28.20
2018-06-08T02:29:17.142Z,28.10
2018-06-08T02:31:44.657Z,28.00
2018-06-08T02:34:12.076Z,27.90
2018-06-08T02:39:07.916Z,27.70
2018-06-08T02:41:35.608Z,27.60
2018-06-08T02:44:03.124Z,27.50
2018-06-08T02:46:30.517Z,27.50
2018-06-08T02:48:57.892Z,27.50
2018-06-08T02:51:27.045Z,27.50
2018-06-08T02:53:54.433Z,27.40
2018-06-08T02:56:21.830Z,27.40
2018-06-08T02:58:49.219Z,27.40
2018-06-08T03:01:16.618Z,27.40
2018-06-08T03:03:43.999Z,27.40
2018-06-08T03:06:12.489Z,27.40
2018-06-08T03:08:39.901Z,27.40
2018-06-08T03:11:07.288Z,27.40
2018-06-08T03:13:34.704Z,27.50
2018-06-08T03:16:02.106Z,27.40
2018-06-08T03:18:29.548Z,27.50
2018-06-08T03:20:57.513Z,27.60
2018-06-08T03:23:26.924Z,27.70
2018-06-08T03:25:54.308Z,27.80
2018-06-08T03:28:21.696Z,27.90
2018-06-08T03:30:49.216Z,27.90
2018-06-08T03:33:16.611Z,27.90
2018-06-08T03:35:44.038Z,27.90
2018-06-08T03:38:11.429Z,27.90
2018-06-08T03:40:38.819Z,27.90
2018-06-08T03:43:06.215Z,27.90
2018-06-08T03:45:33.600Z,27.90
2018-06-08T03:48:00.996Z,27.80
2018-06-08T03:50:28.412Z,27.70
2018-06-08T03:52:55.846Z,27.70
2018-06-08T03:55:23.236Z,27.50
2018-06-08T04:00:18.877Z,27.50
2018-06-08T04:02:46.289Z,27.40
2018-06-08T04:05:13.716Z,27.40
2018-06-08T04:07:41.101Z,27.40
2018-06-08T04:10:08.587Z,27.40
2018-06-08T04:12:36.068Z,27.40
2018-06-08T04:15:03.500Z,27.40
2018-06-08T04:17:30.888Z,27.40
2018-06-08T04:20:04.460Z,27.40
2018-06-08T04:22:31.856Z,27.40
2018-06-08T04:24:59.313Z,27.40
2018-06-08T04:27:26.712Z,27.50
2018-06-08T04:29:54.100Z,27.40
2018-06-08T04:32:21.499Z,27.40
2018-06-08T04:34:48.900Z,27.40
2018-06-08T04:37:16.295Z,27.40
2018-06-08T04:39:43.712Z,27.50
2018-06-08T04:42:11.115Z,27.50
2018-06-08T04:44:38.529Z,27.50
2018-06-08T04:47:05.961Z,27.60
2018-06-08T04:49:33.352Z,27.70
2018-06-08T04:52:00.752Z,27.70
2018-06-08T04:54:28.147Z,27.70
2018-06-08T04:56:56.604Z,27.70
2018-06-08T04:59:24.001Z,27.80
2018-06-08T05:02:00.252Z,27.70
2018-06-08T05:04:27.740Z,27.70
2018-06-08T05:06:55.568Z,27.70
2018-06-08T05:09:22.989Z,27.60
2018-06-08T05:11:50.387Z,27.50
2018-06-08T05:14:19.063Z,27.50
2018-06-08T05:16:46.473Z,27.40
2018-06-08T05:19:14.085Z,27.30
2018-06-08T05:21:41.510Z,27.30
2018-06-08T05:24:08.910Z,27.30
2018-06-08T05:26:36.297Z,27.40
2018-06-08T05:29:03.704Z,27.40
2018-06-08T05:31:31.105Z,27.40
2018-06-08T05:33:58.520Z,27.40
2018-06-08T05:36:25.957Z,27.40
2018-06-08T05:38:53.370Z,27.30
2018-06-08T05:41:20.777Z,27.30
2018-06-08T05:43:48.180Z,27.30
2018-06-08T05:46:15.597Z,27.30
2018-06-08T05:48:43.000Z,27.30
2018-06-08T05:51:10.395Z,27.30
2018-06-08T05:53:37.794Z,27.20
2018-06-08T05:56:05.201Z,27.30
2018-06-08T05:58:32.600Z,27.40
2018-06-08T06:01:00.008Z,27.50
2018-06-08T06:03:27.392Z,27.50
2018-06-08T06:05:54.782Z,27.50
2018-06-08T06:08:22.168Z,27.60
2018-06-08T06:10:49.552Z,27.70
2018-06-08T06:13:16.946Z,27.70
2018-06-08T06:15:44.334Z,27.80
2018-06-08T06:18:11.720Z,27.90
2018-06-08T06:20:39.116Z,27.90
2018-06-08T06:23:06.510Z,27.90
2018-06-08T06:25:33.892Z,27.80
2018-06-08T06:28:01.271Z,27.70
2018-06-08T06:30:28.667Z,27.70
2018-06-08T06:32:56.458Z,27.50
2018-06-08T06:35:23.888Z,27.50
2018-06-08T06:37:51.274Z,27.50
2018-06-08T06:40:18.664Z,27.40
2018-06-08T06:42:46.047Z,27.40
2018-06-08T06:45:13.429Z,27.30
2018-06-08T06:47:40.825Z,27.30
2018-06-08T06:50:08.220Z,27.30
2018-06-08T06:52:35.614Z,27.20
2018-06-08T06:55:03.009Z,27.20
2018-06-08T06:57:30.395Z,27.20
2018-06-08T06:59:57.795Z,27.10
2018-06-08T07:02:25.193Z,27.10
2018-06-08T07:04:52.991Z,27.10
2018-06-08T07:07:20.402Z,27.10
2018-06-08T07:09:47.786Z,27.10
2018-06-08T07:12:15.177Z,27.10
2018-06-08T07:14:42.589Z,26.70
2018-06-08T07:17:09.988Z,26.50
2018-06-08T07:19:37.385Z,26.30
2018-06-08T07:22:04.785Z,26.10
2018-06-08T07:24:32.169Z,26.10
2018-06-08T07:26:59.573Z,26.00
2018-06-08T07:29:27.005Z,25.90
2018-06-08T07:31:54.435Z,25.90
2018-06-08T07:34:21.789Z,25.80
2018-06-08T07:39:16.341Z,25.80
2018-06-08T07:41:43.740Z,25.70
2018-06-08T07:44:11.149Z,25.70
2018-06-08T07:46:38.549Z,25.60
2018-06-08T07:49:05.948Z,25.60
2018-06-08T07:51:33.344Z,25.50
2018-06-08T07:54:00.749Z,25.50
2018-06-08T07:56:28.145Z,25.50
2018-06-08T07:58:55.545Z,25.40
2018-06-08T08:01:23.183Z,25.40
2018-06-08T08:03:50.410Z,25.30
2018-06-08T08:06:17.802Z,25.30
2018-06-08T08:08:45.240Z,25.30
2018-06-08T08:11:12.644Z,25.30
2018-06-08T08:13:40.041Z,25.30
2018-06-08T08:16:07.453Z,25.20
2018-06-08T08:18:34.861Z,25.20
2018-06-08T08:21:02.268Z,25.20
2018-06-08T08:23:29.681Z,25.20
2018-06-08T08:25:57.078Z,25.20
2018-06-08T08:28:24.464Z,25.20
2018-06-08T08:30:51.864Z,25.20
2018-06-08T08:33:19.253Z,25.20
2018-06-08T08:35:46.646Z,25.30
2018-06-08T08:38:14.048Z,25.30
2018-06-08T08:40:41.448Z,25.30
2018-06-08T08:43:08.849Z,25.30
2018-06-08T08:45:36.248Z,25.30
2018-06-08T08:48:03.665Z,25.40
2018-06-08T08:50:31.089Z,25.30
2018-06-08T08:52:58.526Z,25.30
2018-06-08T08:55:25.932Z,25.30
2018-06-08T08:57:53.330Z,25.30
2018-06-08T09:00:20.732Z,25.30
2018-06-08T09:02:48.124Z,25.30
2018-06-08T09:05:15.532Z,25.30
2018-06-08T09:07:42.921Z,25.20
2018-06-08T09:10:10.328Z,25.20
2018-06-08T09:12:37.736Z,25.20
2018-06-08T09:15:05.177Z,25.20
2018-06-08T09:17:32.573Z,25.20
2018-06-08T09:19:59.973Z,25.10
2018-06-08T09:22:27.380Z,25.20
2018-06-08T09:24:54.781Z,25.10
2018-06-08T09:27:22.199Z,25.20
2018-06-08T09:29:49.600Z,25.10
2018-06-08T09:32:16.985Z,25.20
2018-06-08T09:34:44.416Z,25.20
2018-06-08T09:37:11.809Z,25.20
2018-06-08T09:39:39.232Z,25.10
2018-06-08T09:42:06.631Z,25.20
2018-06-08T09:44:34.037Z,25.20
2018-06-08T09:47:01.442Z,25.20
2018-06-08T09:49:28.853Z,25.10
2018-06-08T09:51:56.252Z,25.20
2018-06-08T09:54:23.708Z,25.20
2018-06-08T09:56:51.065Z,25.20
2018-06-08T09:59:18.464Z,25.20
2018-06-08T10:01:45.867Z,25.20
2018-06-08T10:04:13.265Z,25.20
2018-06-08T10:06:40.652Z,25.20
2018-06-08T10:09:08.081Z,25.20
2018-06-08T10:11:35.679Z,25.20
2018-06-08T10:14:03.240Z,25.20
2018-06-08T10:16:30.661Z,25.20
2018-06-08T10:18:58.053Z,25.30
2018-06-08T10:21:25.463Z,25.20
2018-06-08T10:23:52.967Z,25.30
2018-06-08T10:26:20.384Z,25.20
2018-06-08T10:28:47.813Z,25.20
2018-06-08T10:31:15.216Z,25.20
2018-06-08T10:33:42.618Z,25.30
2018-06-08T10:36:10.021Z,25.20
2018-06-08T10:38:37.412Z,25.30
2018-06-08T10:41:04.836Z,25.30
2018-06-08T10:43:32.265Z,25.30
2018-06-08T10:45:59.665Z,25.20
2018-06-08T10:48:27.100Z,25.30
2018-06-08T10:51:06.364Z,25.20
2018-06-08T10:53:33.769Z,25.20
2018-06-08T10:56:01.193Z,25.20
2018-06-08T10:58:28.623Z,25.20
2018-06-08T11:03:23.188Z,25.10
2018-06-08T11:05:50.608Z,25.10
2018-06-08T11:08:17.992Z,25.10
2018-06-08T11:10:45.402Z,25.10
2018-06-08T11:13:12.804Z,25.20
2018-06-08T11:15:40.205Z,25.10
2018-06-08T11:18:07.616Z,25.20
2018-06-08T11:20:35.014Z,25.20
2018-06-08T11:23:02.420Z,25.20
2018-06-08T11:25:29.818Z,25.30
2018-06-08T11:27:57.224Z,25.20
2018-06-08T11:30:24.628Z,25.30
2018-06-08T11:32:52.047Z,25.30
2018-06-08T11:35:19.441Z,25.30
2018-06-08T11:37:46.852Z,25.40
2018-06-08T11:40:14.252Z,25.40
2018-06-08T11:42:41.651Z,25.40
2018-06-08T11:45:09.058Z,25.40
2018-06-08T11:47:36.466Z,25.50
2018-06-08T11:50:03.860Z,25.40
2018-06-08T11:52:31.303Z,25.40
2018-06-08T11:54:58.734Z,25.40
2018-06-08T11:57:26.179Z,25.40
2018-06-08T11:59:53.626Z,25.30
2018-06-08T12:02:21.062Z,25.30
2018-06-08T12:04:48.919Z,25.30
2018-06-08T12:07:16.374Z,25.30
2018-06-08T12:09:43.826Z,25.30
2018-06-08T12:12:11.263Z,25.30
2018-06-08T12:14:38.715Z,25.30
2018-06-08T12:17:06.201Z,25.30
2018-06-08T12:19:33.630Z,25.30
2018-06-08T12:22:01.067Z,25.30
2018-06-08T12:24:28.495Z,25.30
2018-06-08T12:26:55.922Z,25.30
2018-06-08T12:29:23.354Z,25.30
2018-06-08T12:31:50.786Z,25.30
2018-06-08T12:34:18.218Z,25.30
2018-06-08T12:36:45.676Z,25.40
2018-06-08T12:39:13.116Z,25.40
2018-06-08T12:41:40.553Z,25.50
2018-06-08T12:44:07.987Z,25.50
2018-06-08T12:46:35.423Z,25.50
2018-06-08T12:49:02.912Z,25.60
2018-06-08T12:51:30.310Z,25.60
2018-06-08T12:53:57.739Z,25.60
2018-06-08T12:56:25.162Z,25.70
2018-06-08T12:58:52.603Z,25.60
2018-06-08T13:01:20.051Z,25.60
2018-06-08T13:03:47.492Z,25.60
2018-06-08T13:06:14.957Z,25.60
2018-06-08T13:08:42.395Z,25.60
2018-06-08T13:11:09.825Z,25.60
2018-06-08T13:13:37.263Z,25.50
2018-06-08T13:16:04.761Z,25.50
2018-06-08T13:18:32.199Z,25.50
2018-06-08T13:21:00.357Z,25.50
2018-06-08T13:23:28.047Z,25.50
2018-06-08T13:25:55.492Z,25.50
2018-06-08T13:28:23.029Z,25.50
2018-06-08T13:30:50.499Z,25.50
2018-06-08T13:33:17.939Z,25.50
2018-06-08T13:35:45.387Z,25.50
2018-06-08T13:38:13.127Z,25.50
2018-06-08T13:40:40.576Z,25.50
2018-06-08T13:43:08.021Z,25.50
2018-06-08T13:45:35.443Z,25.60
2018-06-08T13:48:02.915Z,25.60
2018-06-08T13:50:30.358Z,25.60
2018-06-08T13:55:25.015Z,25.70
2018-06-08T13:57:52.470Z,25.80
2018-06-08T14:00:19.906Z,25.80
2018-06-08T14:02:47.339Z,25.80
2018-06-08T14:05:14.786Z,25.90
2018-06-08T14:07:42.214Z,25.90
2018-06-08T14:10:09.671Z,25.90
2018-06-08T14:12:37.252Z,25.90
2018-06-08T14:15:04.700Z,26.00
2018-06-08T14:17:32.156Z,26.00
2018-06-08T14:19:59.602Z,26.00
2018-06-08T14:22:27.843Z,26.00
2018-06-08T14:24:55.315Z,25.90
2018-06-08T14:27:22.787Z,25.90
2018-06-08T14:29:50.262Z,25.90
2018-06-08T14:32:17.703Z,25.90
2018-06-08T14:34:45.166Z,26.10
2018-06-08T14:37:13.223Z,26.20
2018-06-08T14:39:40.659Z,26.60
2018-06-08T14:42:08.111Z,26.80
2018-06-08T14:44:35.576Z,27.00
2018-06-08T14:47:03.021Z,27.20
2018-06-08T14:49:30.660Z,27.50
2018-06-08T14:51:58.106Z,27.50
2018-06-08T14:54:25.546Z,27.70
2018-06-08T14:59:20.235Z,27.90
2018-06-08T15:01:47.679Z,27.90
2018-06-08T15:04:15.582Z,28.00
2018-06-08T15:06:43.201Z,28.00
2018-06-08T15:09:11.005Z,28.10
2018-06-08T15:11:38.544Z,28.30
2018-06-08T15:14:06.220Z,28.40
2018-06-08T15:16:33.730Z,28.50
2018-06-08T15:19:01.195Z,28.60
2018-06-08T15:21:28.690Z,28.70
2018-06-08T15:23:56.384Z,28.80
2018-06-08T15:26:23.891Z,28.80
2018-06-08T15:28:51.896Z,28.90
2018-06-08T15:31:19.419Z,28.90
2018-06-08T15:33:47.919Z,29.00
2018-06-08T15:36:15.375Z,29.00
2018-06-08T15:38:42.836Z,29.00
2018-06-08T15:41:10.404Z,28.90
2018-06-08T15:43:37.986Z,28.90
2018-06-08T15:46:05.439Z,28.80
2018-06-08T15:48:33.425Z,28.80
2018-06-08T15:51:00.938Z,28.70
2018-06-08T15:53:28.427Z,28.70
2018-06-08T15:55:55.965Z,28.70
2018-06-08T15:58:23.409Z,28.70
2018-06-08T16:00:50.880Z,28.60
2018-06-08T16:03:18.990Z,28.70
2018-06-08T16:05:46.665Z,28.70
2018-06-08T16:08:15.222Z,28.80
2018-06-08T16:13:11.001Z,28.80
2018-06-08T16:15:40.487Z,28.80
2018-06-08T16:18:09.574Z,28.80
2018-06-08T16:20:37.036Z,28.80
2018-06-08T16:23:04.699Z,28.80
2018-06-08T16:25:32.199Z,28.90
2018-06-08T16:27:59.639Z,28.90
2018-06-08T16:30:27.111Z,29.00
2018-06-08T16:32:54.651Z,29.10
2018-06-08T16:35:22.219Z,29.20
2018-06-08T16:37:49.654Z,29.30
2018-06-08T16:40:17.132Z,29.30
2018-06-08T16:42:44.556Z,29.40
2018-06-08T16:45:12.013Z,29.40
2018-06-08T16:47:39.494Z,29.30
2018-06-08T16:50:06.951Z,29.30
2018-06-08T16:52:34.382Z,29.20
2018-06-08T16:55:01.819Z,29.20
2018-06-08T16:57:29.305Z,29.10
2018-06-08T16:59:56.761Z,29.10
2018-06-08T17:02:24.195Z,29.00
2018-06-08T17:04:51.630Z,29.00
2018-06-08T17:07:19.058Z,28.90
2018-06-08T17:09:46.543Z,28.80
2018-06-08T17:12:14.004Z,28.80
2018-06-08T17:14:41.431Z,28.70
2018-06-08T17:17:08.947Z,28.70
2018-06-08T17:19:36.391Z,28.60
2018-06-08T17:22:03.854Z,28.60
2018-06-08T17:24:31.303Z,28.60
2018-06-08T17:26:58.755Z,28.50
2018-06-08T17:29:26.183Z,28.50
2018-06-08T17:31:53.651Z,28.50
2018-06-08T17:34:21.103Z,28.50
2018-06-08T17:36:48.550Z,28.50
2018-06-08T17:39:16.013Z,28.60
2018-06-08T17:41:43.467Z,28.60
2018-06-08T17:44:11.974Z,28.60
2018-06-08T17:46:39.440Z,28.60
2018-06-08T17:49:07.140Z,28.70
2018-06-08T17:51:46.544Z,28.80
2018-06-08T17:54:26.746Z,28.80
2018-06-08T17:56:54.225Z,29.00
2018-06-08T17:59:21.708Z,29.10
2018-06-08T18:01:49.165Z,29.10
2018-06-08T18:04:16.638Z,29.10
2018-06-08T18:06:44.081Z,29.10
2018-06-08T18:09:11.544Z,29.20
2018-06-08T18:11:40.128Z,29.20
2018-06-08T18:14:07.619Z,29.20
2018-06-08T18:16:35.055Z,29.20
2018-06-08T18:19:02.544Z,29.20
2018-06-08T18:21:29.995Z,29.10
2018-06-08T18:23:58.646Z,29.00
2018-06-08T18:26:26.252Z,28.90
2018-06-08T18:28:54.819Z,28.80
2018-06-08T18:31:22.315Z,28.70
2018-06-08T18:33:51.044Z,28.70
2018-06-08T18:36:18.758Z,28.70
2018-06-08T18:38:46.278Z,28.60
2018-06-08T18:41:13.799Z,28.70
2018-06-08T18:46:26.758Z,29.00
2018-06-08T18:48:55.304Z,29.10
2018-06-08T18:51:22.763Z,29.20
2018-06-08T18:53:53.567Z,29.20
2018-06-08T18:56:21.151Z,29.30
2018-06-08T18:58:48.632Z,29.30
2018-06-08T19:01:16.151Z,29.40
2018-06-08T19:03:43.604Z,29.40
2018-06-08T19:06:11.132Z,29.40
2018-06-08T19:08:38.588Z,29.40
2018-06-08T19:11:06.115Z,29.40
2018-06-08T19:13:33.564Z,29.40
2018-06-08T19:16:01.039Z,29.40
2018-06-08T19:18:28.486Z,29.40
2018-06-08T19:20:56.702Z,29.40
2018-06-08T19:23:24.151Z,29.40
2018-06-08T19:25:51.754Z,29.40
2018-06-08T19:28:19.235Z,29.40
2018-06-08T19:30:46.785Z,29.30
2018-06-08T19:33:14.239Z,29.30
2018-06-08T19:38:08.927Z,29.10
2018-06-08T19:40:41.441Z,29.00
2018-06-08T19:43:09.204Z,29.00
2018-06-08T19:45:36.750Z,28.90
2018-06-08T19:48:04.395Z,28.90
2018-06-08T19:50:32.382Z,28.90
2018-06-08T19:53:00.029Z,28.80
2018-06-08T19:55:27.591Z,28.80
2018-06-08T19:57:55.061Z,28.80
2018-06-08T20:00:22.538Z,28.80
2018-06-08T20:02:50.104Z,28.80
2018-06-08T20:05:17.589Z,28.80
2018-06-08T20:07:45.054Z,28.80
2018-06-08T20:10:12.620Z,28.80
2018-06-08T20:12:40.125Z,28.80
2018-06-08T20:15:09.630Z,28.80
2018-06-08T20:17:37.209Z,28.80
2018-06-08T20:20:05.760Z,28.80
2018-06-08T20:22:33.286Z,28.80
2018-06-08T20:25:01.862Z,28.80
2018-06-08T20:27:37.527Z,28.80
2018-06-08T20:30:06.061Z,28.90
2018-06-08T20:32:34.672Z,29.00
2018-06-08T20:35:03.398Z,29.00
2018-06-08T20:37:46.724Z,29.00
2018-06-08T20:40:14.465Z,29.10
2018-06-08T20:42:42.068Z,29.10
2018-06-08T20:45:09.629Z,29.10
2018-06-08T20:47:37.244Z,29.10
2018-06-08T20:50:05.784Z,29.10
2018-06-08T20:52:45.113Z,29.10
2018-06-08T20:55:14.182Z,29.20
2018-06-08T20:57:47.339Z,29.20
2018-06-08T21:00:15.007Z,29.30
2018-06-08T21:02:42.485Z,29.30
2018-06-08T21:05:09.920Z,29.30
2018-06-08T21:10:21.782Z,29.30
2018-06-08T21:12:49.229Z,29.20
2018-06-08T21:15:16.670Z,29.10
2018-06-08T21:17:45.155Z,29.00
2018-06-08T21:20:12.618Z,28.90
2018-06-08T21:22:40.063Z,28.80
2018-06-08T21:25:07.527Z,28.80
2018-06-08T21:27:34.988Z,28.70
2018-06-08T21:30:02.425Z,28.60
2018-06-08T21:32:29.855Z,28.60
2018-06-08T21:34:57.283Z,28.50
2018-06-08T21:37:24.730Z,28.50
2018-06-08T21:39:52.166Z,28.50
2018-06-08T21:42:19.604Z,28.40
2018-06-08T21:44:47.034Z,28.40
2018-06-08T21:47:23.995Z,28.40
2018-06-08T21:49:51.431Z,28.40
2018-06-08T21:52:18.869Z,28.40
2018-06-08T21:54:46.313Z,28.30
2018-06-08T21:57:13.739Z,28.30
2018-06-08T21:59:41.191Z,28.30
2018-06-08T22:02:08.631Z,28.30
2018-06-08T22:04:36.066Z,28.40
2018-06-08T22:11:58.195Z,28.70
2018-06-08T22:14:25.653Z,28.80
2018-06-08T22:16:53.090Z,28.80
2018-06-08T22:19:20.531Z,28.90
2018-06-08T22:21:47.974Z,28.90
2018-06-08T22:24:15.419Z,28.90
2018-06-08T22:29:10.035Z,29.00
2018-06-08T22:31:37.484Z,28.90
2018-06-08T22:34:05.080Z,28.90
2018-06-08T22:36:32.523Z,28.90
2018-06-08T22:38:59.979Z,28.90
2018-06-08T22:41:27.426Z,28.90
2018-06-08T22:43:54.881Z,28.80
2018-06-08T22:46:22.310Z,28.70
2018-06-08T22:48:49.751Z,28.60
2018-06-08T22:51:17.186Z,28.50
2018-06-08T22:53:45.703Z,28.50
2018-06-08T22:56:13.139Z,28.40
2018-06-08T22:58:40.590Z,28.30
2018-06-08T23:01:08.069Z,28.30
2018-06-08T23:06:02.691Z,28.30
2018-06-08T23:08:30.118Z,28.30
2018-06-08T23:10:57.804Z,28.20
2018-06-08T23:13:25.258Z,28.30
2018-06-08T23:15:52.699Z,28.30
2018-06-08T23:18:20.119Z,28.20
2018-06-08T23:20:47.572Z,28.20
2018-06-08T23:23:15.008Z,28.20
2018-06-08T23:25:42.439Z,28.20
2018-06-08T23:28:09.863Z,28.20
2018-06-08T23:30:37.278Z,28.20
2018-06-08T23:33:04.703Z,28.20
2018-06-08T23:35:32.142Z,28.30
2018-06-08T23:37:59.574Z,28.40
2018-06-08T23:40:27.015Z,28.40
2018-06-08T23:42:54.455Z,28.50
2018-06-08T23:45:21.927Z,28.50
2018-06-08T23:47:49.349Z,28.60
2018-06-08T23:50:16.817Z,28.60
2018-06-08T23:52:44.268Z,28.60
2018-06-08T23:55:11.690Z,28.60
2018-06-08T23:57:39.111Z,28.60
